• Join FlightAware (Why Join?)
  • Login
  • US Flag 
Rudolph Flight #1: Arrived! 
11:41PM EST


 

Airport Tracker/Info


-or-


 

Live Flight TrackerFlight Track Log ✈ MRA605 ✈ 01-Nov-2013 ✈ KPLN - KLAN

Flight Track Log - Related Links

Times and Time Zones

All times are in EDT time to prevent confusion due to time zone crossing. See the MRA605 flight status page for this flight to view local times or setup timezone preferences in your user account.

Time Position Orientation Groundspeed Altitude Reporting Facility
EDT Latitude Longitude Course Direction KTS MPH feet Rate Location/Type
07:54PM 45.4344 -84.8150 174° South 135 155 4,300  Level Minneapolis Center
07:55PM 45.4014 -84.8114 176° South 129 148 5,100 600 Climbing Minneapolis Center
07:56PM 45.3606 -84.8044 173° South 130 150 5,600 480 Climbing Minneapolis Center
07:57PM 45.3397 -84.7785 176° South  Level Estimated
07:57PM 45.3239 -84.7997 175° South 133 153 6,200  Level Minneapolis Center
07:58PM 45.2937 -84.7810 182° South  Level FlightAware Approximate
07:58PM 45.2872 -84.7928 172° South 126 145 6,800  Level Minneapolis Center
07:59PM 45.2477 -84.7773 173° South  Level Estimated
07:59PM 45.2500 -84.7847 171° South 127 146 7,400  Level Minneapolis Center
08:01PM 45.2153 -84.7767 171° South 128 147 7,900 360 Climbing Minneapolis Center
08:02PM 45.1814 -84.7658 167° South 127 146 8,200 360 Climbing Minneapolis Center
08:03PM 45.1389 -84.7583 173° South 140 161 8,700 360 Climbing Minneapolis Center
08:04PM 45.1019 -84.7522 173° South 137 158 9,000 120 Climbing Minneapolis Center
08:05PM 45.0567 -84.7483 177° South 150 173 9,000  Level Minneapolis Center
08:06PM 45.0111 -84.7442 176° South 164 189 9,000  Level Minneapolis Center
08:07PM 44.9619 -84.7442 180° South 165 190 9,000  Level Minneapolis Center
08:08PM 44.9161 -84.7417 178° South 166 191 9,000  Level Minneapolis Center
08:09PM 44.8675 -84.7397 178° South 165 190 9,000  Level Minneapolis Center
08:10PM 44.8222 -84.7372 178° South 164 189 9,000  Level Minneapolis Center
08:11PM 44.7814 -84.7356 178° South 160 184 9,000  Level Minneapolis Center
08:12PM 44.7381 -84.7311 176° South 157 181 9,000  Level Minneapolis Center
08:13PM 44.6822 -84.7244 175° South 163 188 9,000  Level Minneapolis Center
08:14PM 44.6369 -84.7194 176° South 163 188 9,000  Level Minneapolis Center
08:15PM 44.5914 -84.7156 177° South 163 188 9,000  Level Minneapolis Center
08:16PM 44.5464 -84.7119 177° South 162 186 9,000  Level Minneapolis Center
08:17PM 44.5019 -84.7058 174° South 162 186 9,000  Level Minneapolis Center
08:18PM 44.4581 -84.7033 178° South 158 182 9,000  Level Minneapolis Center
08:19PM 44.4147 -84.7042 181° South 157 181 9,000  Level Minneapolis Center
08:20PM 44.3619 -84.7056 181° South 158 182 9,000  Level Minneapolis Center
08:21PM 44.3175 -84.7036 178° South 159 183 9,000  Level Minneapolis Center
08:22PM 44.2733 -84.7033 180° South 158 182 9,000  Level Minneapolis Center
08:23PM 44.2292 -84.7019 179° South 159 183 9,000  Level Minneapolis Center
08:24PM 44.1844 -84.6992 177° South 161 185 9,000  Level Minneapolis Center
08:25PM 44.1394 -84.6975 178° South 161 185 9,000  Level Minneapolis Center
08:26PM 44.0942 -84.6958 178° South 162 186 9,000  Level Minneapolis Center
08:27PM 44.0394 -84.6956 180° South 163 188 9,000  Level Minneapolis Center
08:28PM 43.9978 -84.6914 176° South 163 188 9,000  Level Minneapolis Center
08:29PM 43.9531 -84.6869 176° South 162 186 9,000  Level Minneapolis Center
08:30PM 43.9097 -84.6831 176° South 159 183 9,000  Level Minneapolis Center
08:31PM 43.8669 -84.6797 177° South 155 178 9,000  Level Minneapolis Center
08:32PM 43.8144 -84.6733 175° South 157 181 9,000  Level Minneapolis Center
08:33PM 43.7711 -84.6703 177° South 156 180 9,000  Level Minneapolis Center
08:34PM 43.7278 -84.6667 177° South 157 181 9,000 -60 Level Minneapolis Center
08:36PM 43.6839 -84.6642 178° South 157 181 8,900 -420 Descending Minneapolis Center
08:37PM 43.6356 -84.6594 176° South 168 193 8,200 -600 Descending Minneapolis Center
08:38PM 43.5847 -84.6564 178° South 178 205 7,700 -660 Descending Minneapolis Center
08:39PM 43.5233 -84.6500 176° South 182 209 6,900 -720 Descending Minneapolis Center
08:40PM 43.4733 -84.6456 176° South 181 208 6,300 -480 Descending Minneapolis Center
08:41PM 43.4214 -84.6419 177° South 184 212 6,000 -180 Descending Minneapolis Center
08:42PM 43.3739 -84.6383 177° South 181 208 6,000  Level Minneapolis Center
08:43PM 43.3269 -84.6361 178° South 175 201 6,000  Level Minneapolis Center
08:44PM 43.2833 -84.6297 174° South 167 192 6,000  Level Cleveland Center
08:45PM 43.2378 -84.6256 176° South 166 191 6,000  Level Cleveland Center
08:46PM 43.1881 -84.6200 175° South 167 192 6,000 -300 Level Cleveland Center
08:47PM 43.1425 -84.5953 158° South 179 206 5,400 -540 Descending Cleveland Center
08:48PM 43.0917 -84.5650 156° South 185 213 4,900 -660 Descending Cleveland Center
08:49PM 43.0453 -84.5361 156° South 187 215 4,100 -480 Descending Cleveland Center
08:50PM 42.9969 -84.5042 154° Southeast 180 207 4,000 -360 Descending Cleveland Center
08:51PM 42.9544 -84.4761 154° Southeast 173 199 3,400 -540 Descending Cleveland Center
08:52PM 42.9075 -84.4464 155° Southeast 174 200 2,900 -240 Descending Cleveland Center
08:53PM 42.8667 -84.4186 153° Southeast 170 196 3,000  Climbing Cleveland Center
08:54PM 42.8239 -84.3867 151° Southeast 166 191 3,000 -300 Level Cleveland Center
08:55PM 42.7825 -84.3519 148° Southeast 176 203 2,500 -360 Descending Cleveland Center
08:56PM 42.7708 -84.3842 244° Southwest 144 166 2,300  Descending Cleveland Center
08:57PM 42.7808 -84.4200 291° West 118 136 2,500  Climbing Cleveland Center
08:58PM 42.7761 -84.4697 263° West 129 148 2,400 -120 Descending Cleveland Center
08:59PM 42.7794 -84.5086 277° West 124 143 2,300 -120 Descending Cleveland Center